sensor_id;sensor_type;location;lat;lon;timestamp;P1;durP1;ratioP1;P2;durP2;ratioP2
28180;SDS011;15464;50.988;10.318;2023-08-07T00:01:59;2.70;;;0.93;;
28180;SDS011;15464;50.988;10.318;2023-08-07T00:04:26;1.42;;;1.00;;
28180;SDS011;15464;50.988;10.318;2023-08-07T00:06:53;1.10;;;1.00;;
28180;SDS011;15464;50.988;10.318;2023-08-07T00:09:19;1.95;;;1.00;;
28180;SDS011;15464;50.988;10.318;2023-08-07T00:11:46;1.00;;;0.80;;
28180;SDS011;15464;50.988;10.318;2023-08-07T00:14:13;0.40;;;0.40;;
28180;SDS011;15464;50.988;10.318;2023-08-07T00:16:40;0.55;;;0.40;;
28180;SDS011;15464;50.988;10.318;2023-08-07T00:19:08;0.73;;;0.40;;
28180;SDS011;15464;50.988;10.318;2023-08-07T00:21:34;0.43;;;0.40;;
28180;SDS011;15464;50.988;10.318;2023-08-07T00:24:02;0.30;;;0.30;;
28180;SDS011;15464;50.988;10.318;2023-08-07T00:26:29;0.88;;;0.50;;
28180;SDS011;15464;50.988;10.318;2023-08-07T00:28:58;0.60;;;0.50;;
28180;SDS011;15464;50.988;10.318;2023-08-07T00:31:25;2.20;;;0.57;;
28180;SDS011;15464;50.988;10.318;2023-08-07T00:33:52;2.70;;;0.68;;
28180;SDS011;15464;50.988;10.318;2023-08-07T00:36:20;0.70;;;0.60;;
28180;SDS011;15464;50.988;10.318;2023-08-07T00:38:47;2.40;;;0.80;;
28180;SDS011;15464;50.988;10.318;2023-08-07T00:41:15;0.65;;;0.65;;
28180;SDS011;15464;50.988;10.318;2023-08-07T00:43:43;0.85;;;0.68;;
28180;SDS011;15464;50.988;10.318;2023-08-07T00:46:09;1.60;;;1.00;;
28180;SDS011;15464;50.988;10.318;2023-08-07T00:48:36;0.68;;;0.60;;
28180;SDS011;15464;50.988;10.318;2023-08-07T00:51:03;2.20;;;0.82;;
28180;SDS011;15464;50.988;10.318;2023-08-07T00:53:30;1.25;;;0.82;;
28180;SDS011;15464;50.988;10.318;2023-08-07T00:55:57;3.17;;;1.05;;
28180;SDS011;15464;50.988;10.318;2023-08-07T00:58:24;2.75;;;0.70;;
28180;SDS011;15464;50.988;10.318;2023-08-07T01:00:51;0.90;;;0.60;;
28180;SDS011;15464;50.988;10.318;2023-08-07T01:03:18;1.30;;;0.60;;
28180;SDS011;15464;50.988;10.318;2023-08-07T01:05:44;1.58;;;0.55;;
28180;SDS011;15464;50.988;10.318;2023-08-07T01:08:11;1.48;;;0.60;;
28180;SDS011;15464;50.988;10.318;2023-08-07T01:13:40;3.35;;;0.65;;
28180;SDS011;15464;50.988;10.318;2023-08-07T01:16:17;0.73;;;0.47;;
28180;SDS011;15464;50.988;10.318;2023-08-07T01:18:48;2.72;;;0.65;;
28180;SDS011;15464;50.988;10.318;2023-08-07T01:21:18;1.13;;;0.50;;
28180;SDS011;15464;50.988;10.318;2023-08-07T01:23:46;1.67;;;0.50;;
28180;SDS011;15464;50.988;10.318;2023-08-07T01:26:14;0.85;;;0.52;;
28180;SDS011;15464;50.988;10.318;2023-08-07T01:28:44;2.03;;;0.80;;
28180;SDS011;15464;50.988;10.318;2023-08-07T01:31:16;1.13;;;0.60;;
28180;SDS011;15464;50.988;10.318;2023-08-07T01:33:48;4.13;;;0.73;;
28180;SDS011;15464;50.988;10.318;2023-08-07T01:36:23;1.02;;;0.50;;
28180;SDS011;15464;50.988;10.318;2023-08-07T01:38:54;2.85;;;0.80;;
28180;SDS011;15464;50.988;10.318;2023-08-07T01:41:24;1.65;;;0.80;;
28180;SDS011;15464;50.988;10.318;2023-08-07T01:43:51;0.70;;;0.57;;
28180;SDS011;15464;50.988;10.318;2023-08-07T01:46:18;0.80;;;0.80;;
28180;SDS011;15464;50.988;10.318;2023-08-07T01:48:45;1.63;;;0.73;;
28180;SDS011;15464;50.988;10.318;2023-08-07T01:51:12;2.65;;;0.77;;
28180;SDS011;15464;50.988;10.318;2023-08-07T01:53:39;6.88;;;0.95;;
28180;SDS011;15464;50.988;10.318;2023-08-07T01:56:05;0.98;;;0.80;;
28180;SDS011;15464;50.988;10.318;2023-08-07T01:58:32;3.05;;;1.20;;
28180;SDS011;15464;50.988;10.318;2023-08-07T02:00:59;2.17;;;0.80;;
28180;SDS011;15464;50.988;10.318;2023-08-07T02:03:26;2.28;;;0.90;;
28180;SDS011;15464;50.988;10.318;2023-08-07T02:05:53;1.98;;;0.88;;
28180;SDS011;15464;50.988;10.318;2023-08-07T02:08:20;2.53;;;1.15;;
28180;SDS011;15464;50.988;10.318;2023-08-07T02:10:47;2.03;;;0.80;;
28180;SDS011;15464;50.988;10.318;2023-08-07T02:13:13;1.83;;;1.08;;
28180;SDS011;15464;50.988;10.318;2023-08-07T02:15:40;2.25;;;0.90;;
28180;SDS011;15464;50.988;10.318;2023-08-07T02:18:07;1.52;;;0.98;;
28180;SDS011;15464;50.988;10.318;2023-08-07T02:20:33;2.95;;;1.00;;
28180;SDS011;15464;50.988;10.318;2023-08-07T02:23:00;0.85;;;0.80;;
28180;SDS011;15464;50.988;10.318;2023-08-07T02:25:27;1.98;;;0.95;;
28180;SDS011;15464;50.988;10.318;2023-08-07T02:27:53;1.45;;;0.80;;
28180;SDS011;15464;50.988;10.318;2023-08-07T02:30:20;1.27;;;0.80;;
28180;SDS011;15464;50.988;10.318;2023-08-07T02:32:47;3.08;;;1.00;;
28180;SDS011;15464;50.988;10.318;2023-08-07T02:35:14;2.08;;;0.70;;
28180;SDS011;15464;50.988;10.318;2023-08-07T02:37:40;1.73;;;0.70;;
28180;SDS011;15464;50.988;10.318;2023-08-07T02:40:07;1.30;;;0.68;;
28180;SDS011;15464;50.988;10.318;2023-08-07T02:42:34;1.25;;;0.70;;
28180;SDS011;15464;50.988;10.318;2023-08-07T02:45:01;1.00;;;0.63;;
28180;SDS011;15464;50.988;10.318;2023-08-07T02:47:27;0.88;;;0.70;;
28180;SDS011;15464;50.988;10.318;2023-08-07T02:49:54;2.40;;;0.75;;
28180;SDS011;15464;50.988;10.318;2023-08-07T02:52:21;1.50;;;0.57;;
28180;SDS011;15464;50.988;10.318;2023-08-07T02:54:47;2.05;;;0.73;;
28180;SDS011;15464;50.988;10.318;2023-08-07T02:57:14;3.03;;;0.60;;
28180;SDS011;15464;50.988;10.318;2023-08-07T02:59:41;2.85;;;0.50;;
28180;SDS011;15464;50.988;10.318;2023-08-07T03:02:07;0.45;;;0.45;;
28180;SDS011;15464;50.988;10.318;2023-08-07T03:04:34;0.57;;;0.57;;
28180;SDS011;15464;50.988;10.318;2023-08-07T03:07:01;1.52;;;0.60;;
28180;SDS011;15464;50.988;10.318;2023-08-07T03:09:28;0.88;;;0.68;;
28180;SDS011;15464;50.988;10.318;2023-08-07T03:11:54;1.70;;;1.00;;
28180;SDS011;15464;50.988;10.318;2023-08-07T03:14:21;1.60;;;0.90;;
28180;SDS011;15464;50.988;10.318;2023-08-07T03:16:48;2.65;;;0.95;;
28180;SDS011;15464;50.988;10.318;2023-08-07T03:19:15;1.17;;;0.70;;
28180;SDS011;15464;50.988;10.318;2023-08-07T03:21:42;1.77;;;0.80;;
28180;SDS011;15464;50.988;10.318;2023-08-07T03:24:08;0.90;;;0.90;;
28180;SDS011;15464;50.988;10.318;2023-08-07T03:26:38;1.02;;;0.80;;
28180;SDS011;15464;50.988;10.318;2023-08-07T03:29:05;0.70;;;0.70;;
28180;SDS011;15464;50.988;10.318;2023-08-07T03:31:31;0.88;;;0.70;;
28180;SDS011;15464;50.988;10.318;2023-08-07T03:33:58;7.63;;;1.20;;
28180;SDS011;15464;50.988;10.318;2023-08-07T03:36:25;2.65;;;0.80;;
28180;SDS011;15464;50.988;10.318;2023-08-07T03:38:51;1.48;;;0.90;;
28180;SDS011;15464;50.988;10.318;2023-08-07T03:41:18;3.35;;;1.00;;
28180;SDS011;15464;50.988;10.318;2023-08-07T03:43:45;3.30;;;0.85;;
28180;SDS011;15464;50.988;10.318;2023-08-07T03:46:12;2.53;;;0.88;;
28180;SDS011;15464;50.988;10.318;2023-08-07T03:48:38;3.25;;;0.82;;
28180;SDS011;15464;50.988;10.318;2023-08-07T03:51:05;0.77;;;0.65;;
28180;SDS011;15464;50.988;10.318;2023-08-07T03:53:37;1.35;;;0.73;;
28180;SDS011;15464;50.988;10.318;2023-08-07T03:56:03;0.73;;;0.60;;
28180;SDS011;15464;50.988;10.318;2023-08-07T03:58:30;0.70;;;0.70;;
28180;SDS011;15464;50.988;10.318;2023-08-07T04:00:57;0.95;;;0.90;;
28180;SDS011;15464;50.988;10.318;2023-08-07T04:03:24;2.40;;;0.90;;
28180;SDS011;15464;50.988;10.318;2023-08-07T04:05:54;0.70;;;0.70;;
28180;SDS011;15464;50.988;10.318;2023-08-07T04:08:22;1.10;;;0.80;;
28180;SDS011;15464;50.988;10.318;2023-08-07T04:11:01;2.13;;;0.90;;
28180;SDS011;15464;50.988;10.318;2023-08-07T04:13:31;2.10;;;0.70;;
28180;SDS011;15464;50.988;10.318;2023-08-07T04:15:58;2.80;;;0.85;;
28180;SDS011;15464;50.988;10.318;2023-08-07T04:18:27;1.37;;;0.67;;
28180;SDS011;15464;50.988;10.318;2023-08-07T04:20:54;1.35;;;0.90;;
28180;SDS011;15464;50.988;10.318;2023-08-07T04:23:21;1.38;;;0.80;;
28180;SDS011;15464;50.988;10.318;2023-08-07T04:25:49;0.75;;;0.52;;
28180;SDS011;15464;50.988;10.318;2023-08-07T04:28:16;2.70;;;0.75;;
28180;SDS011;15464;50.988;10.318;2023-08-07T04:30:43;0.60;;;0.60;;
28180;SDS011;15464;50.988;10.318;2023-08-07T04:33:11;2.15;;;0.70;;
28180;SDS011;15464;50.988;10.318;2023-08-07T04:35:39;1.35;;;0.50;;
28180;SDS011;15464;50.988;10.318;2023-08-07T04:38:06;0.80;;;0.60;;
28180;SDS011;15464;50.988;10.318;2023-08-07T04:40:32;1.17;;;0.80;;
28180;SDS011;15464;50.988;10.318;2023-08-07T04:42:59;0.40;;;0.40;;
28180;SDS011;15464;50.988;10.318;2023-08-07T04:45:26;0.40;;;0.40;;
28180;SDS011;15464;50.988;10.318;2023-08-07T04:47:53;1.35;;;0.70;;
28180;SDS011;15464;50.988;10.318;2023-08-07T04:50:19;0.38;;;0.38;;
28180;SDS011;15464;50.988;10.318;2023-08-07T04:52:47;0.73;;;0.43;;
28180;SDS011;15464;50.988;10.318;2023-08-07T04:55:13;1.58;;;0.50;;
28180;SDS011;15464;50.988;10.318;2023-08-07T04:57:40;1.00;;;0.50;;
28180;SDS011;15464;50.988;10.318;2023-08-07T05:00:07;1.23;;;0.60;;
28180;SDS011;15464;50.988;10.318;2023-08-07T05:02:34;0.47;;;0.47;;
28180;SDS011;15464;50.988;10.318;2023-08-07T05:05:01;0.30;;;0.30;;
28180;SDS011;15464;50.988;10.318;2023-08-07T05:07:28;0.40;;;0.40;;
28180;SDS011;15464;50.988;10.318;2023-08-07T05:09:54;1.65;;;0.38;;
28180;SDS011;15464;50.988;10.318;2023-08-07T05:12:21;2.15;;;0.40;;
28180;SDS011;15464;50.988;10.318;2023-08-07T05:14:49;0.65;;;0.30;;
28180;SDS011;15464;50.988;10.318;2023-08-07T05:17:15;1.48;;;0.30;;
28180;SDS011;15464;50.988;10.318;2023-08-07T05:19:42;1.58;;;0.28;;
28180;SDS011;15464;50.988;10.318;2023-08-07T05:22:09;0.38;;;0.30;;
28180;SDS011;15464;50.988;10.318;2023-08-07T05:24:35;1.65;;;0.30;;
28180;SDS011;15464;50.988;10.318;2023-08-07T05:27:06;0.80;;;0.40;;
28180;SDS011;15464;50.988;10.318;2023-08-07T05:29:36;0.95;;;0.40;;
28180;SDS011;15464;50.988;10.318;2023-08-07T05:32:10;1.10;;;0.30;;
28180;SDS011;15464;50.988;10.318;2023-08-07T05:34:38;1.45;;;0.20;;
28180;SDS011;15464;50.988;10.318;2023-08-07T05:37:05;0.20;;;0.20;;
28180;SDS011;15464;50.988;10.318;2023-08-07T05:39:32;1.75;;;0.30;;
28180;SDS011;15464;50.988;10.318;2023-08-07T05:41:59;2.03;;;0.40;;
28180;SDS011;15464;50.988;10.318;2023-08-07T05:44:26;0.90;;;0.30;;
28180;SDS011;15464;50.988;10.318;2023-08-07T05:46:53;0.90;;;0.30;;
28180;SDS011;15464;50.988;10.318;2023-08-07T05:49:20;0.28;;;0.20;;
28180;SDS011;15464;50.988;10.318;2023-08-07T05:51:51;1.38;;;0.35;;
28180;SDS011;15464;50.988;10.318;2023-08-07T05:54:17;0.90;;;0.32;;
28180;SDS011;15464;50.988;10.318;2023-08-07T05:56:44;0.20;;;0.20;;
28180;SDS011;15464;50.988;10.318;2023-08-07T05:59:11;0.93;;;0.30;;
28180;SDS011;15464;50.988;10.318;2023-08-07T06:01:38;0.28;;;0.28;;
28180;SDS011;15464;50.988;10.318;2023-08-07T06:04:04;1.60;;;0.57;;
28180;SDS011;15464;50.988;10.318;2023-08-07T06:06:31;0.57;;;0.40;;
28180;SDS011;15464;50.988;10.318;2023-08-07T06:11:28;2.00;;;0.38;;
28180;SDS011;15464;50.988;10.318;2023-08-07T06:13:55;1.17;;;0.20;;
28180;SDS011;15464;50.988;10.318;2023-08-07T06:16:22;2.65;;;0.43;;
28180;SDS011;15464;50.988;10.318;2023-08-07T06:18:49;0.38;;;0.30;;
28180;SDS011;15464;50.988;10.318;2023-08-07T06:21:16;0.20;;;0.20;;
28180;SDS011;15464;50.988;10.318;2023-08-07T06:23:42;1.60;;;0.20;;
28180;SDS011;15464;50.988;10.318;2023-08-07T06:26:09;2.30;;;0.30;;
28180;SDS011;15464;50.988;10.318;2023-08-07T06:28:36;1.65;;;0.20;;
28180;SDS011;15464;50.988;10.318;2023-08-07T06:31:09;0.20;;;0.20;;
28180;SDS011;15464;50.988;10.318;2023-08-07T06:33:37;1.92;;;0.25;;
28180;SDS011;15464;50.988;10.318;2023-08-07T06:36:04;0.20;;;0.20;;
28180;SDS011;15464;50.988;10.318;2023-08-07T06:38:31;1.27;;;0.30;;
28180;SDS011;15464;50.988;10.318;2023-08-07T06:40:58;0.38;;;0.20;;
28180;SDS011;15464;50.988;10.318;2023-08-07T06:43:25;2.08;;;0.30;;
28180;SDS011;15464;50.988;10.318;2023-08-07T06:45:54;0.30;;;0.30;;
28180;SDS011;15464;50.988;10.318;2023-08-07T06:48:22;0.45;;;0.20;;
28180;SDS011;15464;50.988;10.318;2023-08-07T06:50:49;0.43;;;0.32;;
28180;SDS011;15464;50.988;10.318;2023-08-07T06:53:17;0.22;;;0.22;;
28180;SDS011;15464;50.988;10.318;2023-08-07T06:55:45;0.40;;;0.30;;
28180;SDS011;15464;50.988;10.318;2023-08-07T06:58:12;0.52;;;0.20;;
28180;SDS011;15464;50.988;10.318;2023-08-07T07:00:38;1.20;;;0.28;;
28180;SDS011;15464;50.988;10.318;2023-08-07T07:03:05;1.48;;;0.30;;
28180;SDS011;15464;50.988;10.318;2023-08-07T07:05:34;0.30;;;0.30;;
28180;SDS011;15464;50.988;10.318;2023-08-07T07:08:00;0.30;;;0.30;;
28180;SDS011;15464;50.988;10.318;2023-08-07T07:10:27;0.82;;;0.35;;
28180;SDS011;15464;50.988;10.318;2023-08-07T07:12:54;1.73;;;0.40;;
28180;SDS011;15464;50.988;10.318;2023-08-07T07:15:21;0.43;;;0.25;;
28180;SDS011;15464;50.988;10.318;2023-08-07T07:17:48;8.77;;;0.77;;
28180;SDS011;15464;50.988;10.318;2023-08-07T07:20:15;1.05;;;0.30;;
28180;SDS011;15464;50.988;10.318;2023-08-07T07:22:42;0.30;;;0.30;;
28180;SDS011;15464;50.988;10.318;2023-08-07T07:25:09;0.20;;;0.20;;
28180;SDS011;15464;50.988;10.318;2023-08-07T07:27:36;0.80;;;0.30;;
28180;SDS011;15464;50.988;10.318;2023-08-07T07:30:03;0.90;;;0.32;;
28180;SDS011;15464;50.988;10.318;2023-08-07T07:32:30;0.40;;;0.30;;
28180;SDS011;15464;50.988;10.318;2023-08-07T07:34:57;0.73;;;0.30;;
28180;SDS011;15464;50.988;10.318;2023-08-07T07:37:24;0.90;;;0.35;;
28180;SDS011;15464;50.988;10.318;2023-08-07T07:39:51;0.30;;;0.20;;
28180;SDS011;15464;50.988;10.318;2023-08-07T07:42:17;1.25;;;0.40;;
28180;SDS011;15464;50.988;10.318;2023-08-07T07:44:44;0.50;;;0.28;;
28180;SDS011;15464;50.988;10.318;2023-08-07T07:47:11;0.30;;;0.30;;
28180;SDS011;15464;50.988;10.318;2023-08-07T07:49:39;1.48;;;0.30;;
28180;SDS011;15464;50.988;10.318;2023-08-07T07:52:10;0.22;;;0.20;;
28180;SDS011;15464;50.988;10.318;2023-08-07T07:54:37;0.63;;;0.28;;
28180;SDS011;15464;50.988;10.318;2023-08-07T07:57:03;0.60;;;0.32;;
28180;SDS011;15464;50.988;10.318;2023-08-07T07:59:30;1.65;;;0.30;;
28180;SDS011;15464;50.988;10.318;2023-08-07T08:01:57;1.38;;;0.82;;
28180;SDS011;15464;50.988;10.318;2023-08-07T08:04:24;0.60;;;0.30;;
28180;SDS011;15464;50.988;10.318;2023-08-07T08:06:51;0.40;;;0.20;;
28180;SDS011;15464;50.988;10.318;2023-08-07T08:09:18;0.43;;;0.28;;
28180;SDS011;15464;50.988;10.318;2023-08-07T08:11:45;0.25;;;0.20;;
28180;SDS011;15464;50.988;10.318;2023-08-07T08:14:13;0.30;;;0.30;;
28180;SDS011;15464;50.988;10.318;2023-08-07T08:16:39;0.25;;;0.20;;
28180;SDS011;15464;50.988;10.318;2023-08-07T08:19:06;0.30;;;0.28;;
28180;SDS011;15464;50.988;10.318;2023-08-07T08:21:35;0.88;;;0.20;;
28180;SDS011;15464;50.988;10.318;2023-08-07T08:24:02;1.58;;;0.30;;
28180;SDS011;15464;50.988;10.318;2023-08-07T08:26:29;0.40;;;0.40;;
28180;SDS011;15464;50.988;10.318;2023-08-07T08:28:56;0.45;;;0.20;;
28180;SDS011;15464;50.988;10.318;2023-08-07T08:31:22;0.38;;;0.22;;
28180;SDS011;15464;50.988;10.318;2023-08-07T08:33:50;1.48;;;0.30;;
28180;SDS011;15464;50.988;10.318;2023-08-07T08:36:17;0.82;;;0.30;;
28180;SDS011;15464;50.988;10.318;2023-08-07T08:38:44;0.25;;;0.20;;
28180;SDS011;15464;50.988;10.318;2023-08-07T08:41:13;0.35;;;0.20;;
28180;SDS011;15464;50.988;10.318;2023-08-07T08:43:40;2.45;;;0.40;;
28180;SDS011;15464;50.988;10.318;2023-08-07T08:46:09;1.38;;;0.50;;
28180;SDS011;15464;50.988;10.318;2023-08-07T08:48:38;0.25;;;0.25;;
28180;SDS011;15464;50.988;10.318;2023-08-07T08:51:07;0.95;;;0.40;;
28180;SDS011;15464;50.988;10.318;2023-08-07T08:53:35;0.40;;;0.40;;
28180;SDS011;15464;50.988;10.318;2023-08-07T08:56:02;1.25;;;0.40;;
28180;SDS011;15464;50.988;10.318;2023-08-07T08:58:29;1.60;;;0.50;;
28180;SDS011;15464;50.988;10.318;2023-08-07T09:00:57;1.05;;;0.50;;
28180;SDS011;15464;50.988;10.318;2023-08-07T09:03:24;0.65;;;0.40;;
28180;SDS011;15464;50.988;10.318;2023-08-07T09:05:52;1.05;;;0.45;;
28180;SDS011;15464;50.988;10.318;2023-08-07T09:08:22;4.05;;;1.65;;
28180;SDS011;15464;50.988;10.318;2023-08-07T09:10:52;0.90;;;0.45;;
28180;SDS011;15464;50.988;10.318;2023-08-07T09:13:20;0.68;;;0.60;;
28180;SDS011;15464;50.988;10.318;2023-08-07T09:15:50;1.55;;;0.60;;
28180;SDS011;15464;50.988;10.318;2023-08-07T09:18:17;0.95;;;0.70;;
28180;SDS011;15464;50.988;10.318;2023-08-07T09:23:15;0.88;;;0.50;;
28180;SDS011;15464;50.988;10.318;2023-08-07T09:25:45;0.40;;;0.40;;
28180;SDS011;15464;50.988;10.318;2023-08-07T09:28:12;1.10;;;0.70;;
28180;SDS011;15464;50.988;10.318;2023-08-07T09:30:39;0.88;;;0.50;;
28180;SDS011;15464;50.988;10.318;2023-08-07T09:33:10;2.03;;;0.70;;
28180;SDS011;15464;50.988;10.318;2023-08-07T09:35:37;1.88;;;0.90;;
28180;SDS011;15464;50.988;10.318;2023-08-07T09:38:07;0.60;;;0.50;;
28180;SDS011;15464;50.988;10.318;2023-08-07T09:40:34;1.52;;;0.60;;
28180;SDS011;15464;50.988;10.318;2023-08-07T09:43:01;0.73;;;0.60;;
28180;SDS011;15464;50.988;10.318;2023-08-07T09:45:29;0.70;;;0.50;;
28180;SDS011;15464;50.988;10.318;2023-08-07T09:47:58;0.83;;;0.83;;
28180;SDS011;15464;50.988;10.318;2023-08-07T09:50:25;1.23;;;0.65;;
28180;SDS011;15464;50.988;10.318;2023-08-07T09:52:53;1.10;;;0.47;;
28180;SDS011;15464;50.988;10.318;2023-08-07T09:55:22;1.85;;;0.43;;
28180;SDS011;15464;50.988;10.318;2023-08-07T09:57:50;0.52;;;0.38;;
28180;SDS011;15464;50.988;10.318;2023-08-07T10:00:17;1.00;;;0.40;;
28180;SDS011;15464;50.988;10.318;2023-08-07T10:02:48;1.50;;;0.40;;
28180;SDS011;15464;50.988;10.318;2023-08-07T10:05:16;0.50;;;0.35;;
28180;SDS011;15464;50.988;10.318;2023-08-07T10:07:43;0.93;;;0.50;;
28180;SDS011;15464;50.988;10.318;2023-08-07T10:10:11;0.40;;;0.40;;
28180;SDS011;15464;50.988;10.318;2023-08-07T10:12:38;0.40;;;0.40;;
28180;SDS011;15464;50.988;10.318;2023-08-07T10:15:05;3.03;;;0.80;;
28180;SDS011;15464;50.988;10.318;2023-08-07T10:17:40;0.95;;;0.47;;
28180;SDS011;15464;50.988;10.318;2023-08-07T10:20:07;0.70;;;0.50;;
28180;SDS011;15464;50.988;10.318;2023-08-07T10:22:34;0.50;;;0.50;;
28180;SDS011;15464;50.988;10.318;2023-08-07T10:25:05;0.90;;;0.50;;
28180;SDS011;15464;50.988;10.318;2023-08-07T10:27:34;1.83;;;0.50;;
28180;SDS011;15464;50.988;10.318;2023-08-07T10:30:04;0.88;;;0.30;;
28180;SDS011;15464;50.988;10.318;2023-08-07T10:32:33;0.52;;;0.40;;
28180;SDS011;15464;50.988;10.318;2023-08-07T10:35:02;1.35;;;0.50;;
28180;SDS011;15464;50.988;10.318;2023-08-07T10:37:41;1.67;;;0.43;;
28180;SDS011;15464;50.988;10.318;2023-08-07T10:40:09;0.30;;;0.30;;
28180;SDS011;15464;50.988;10.318;2023-08-07T10:45:43;0.68;;;0.40;;
28180;SDS011;15464;50.988;10.318;2023-08-07T10:48:12;1.10;;;0.60;;
28180;SDS011;15464;50.988;10.318;2023-08-07T10:50:50;3.30;;;0.60;;
28180;SDS011;15464;50.988;10.318;2023-08-07T10:53:36;0.45;;;0.43;;
28180;SDS011;15464;50.988;10.318;2023-08-07T10:56:09;1.17;;;0.45;;
28180;SDS011;15464;50.988;10.318;2023-08-07T10:58:38;0.63;;;0.45;;
28180;SDS011;15464;50.988;10.318;2023-08-07T11:01:18;0.60;;;0.45;;
28180;SDS011;15464;50.988;10.318;2023-08-07T11:06:23;0.50;;;0.50;;
28180;SDS011;15464;50.988;10.318;2023-08-07T11:08:53;0.60;;;0.60;;
28180;SDS011;15464;50.988;10.318;2023-08-07T11:11:20;1.15;;;0.65;;
28180;SDS011;15464;50.988;10.318;2023-08-07T11:13:47;0.47;;;0.43;;
28180;SDS011;15464;50.988;10.318;2023-08-07T11:16:13;0.50;;;0.50;;
28180;SDS011;15464;50.988;10.318;2023-08-07T11:18:41;0.88;;;0.43;;
28180;SDS011;15464;50.988;10.318;2023-08-07T11:21:09;2.58;;;0.52;;
28180;SDS011;15464;50.988;10.318;2023-08-07T11:23:38;1.20;;;0.57;;
28180;SDS011;15464;50.988;10.318;2023-08-07T11:26:10;0.50;;;0.50;;
28180;SDS011;15464;50.988;10.318;2023-08-07T11:28:36;0.45;;;0.45;;
28180;SDS011;15464;50.988;10.318;2023-08-07T11:31:03;0.47;;;0.40;;
28180;SDS011;15464;50.988;10.318;2023-08-07T11:33:30;1.55;;;0.77;;
28180;SDS011;15464;50.988;10.318;2023-08-07T11:35:57;1.40;;;0.70;;
28180;SDS011;15464;50.988;10.318;2023-08-07T11:38:41;0.65;;;0.60;;
28180;SDS011;15464;50.988;10.318;2023-08-07T11:41:13;0.70;;;0.60;;
28180;SDS011;15464;50.988;10.318;2023-08-07T11:43:41;0.68;;;0.50;;
28180;SDS011;15464;50.988;10.318;2023-08-07T11:46:10;0.98;;;0.60;;
28180;SDS011;15464;50.988;10.318;2023-08-07T11:48:38;0.28;;;0.28;;
28180;SDS011;15464;50.988;10.318;2023-08-07T11:51:06;0.57;;;0.50;;
28180;SDS011;15464;50.988;10.318;2023-08-07T11:53:35;0.70;;;0.60;;
28180;SDS011;15464;50.988;10.318;2023-08-07T12:01:09;0.82;;;0.63;;
28180;SDS011;15464;50.988;10.318;2023-08-07T12:03:38;1.30;;;0.75;;
28180;SDS011;15464;50.988;10.318;2023-08-07T12:06:08;0.52;;;0.52;;
28180;SDS011;15464;50.988;10.318;2023-08-07T12:08:39;0.50;;;0.50;;
28180;SDS011;15464;50.988;10.318;2023-08-07T12:11:11;2.03;;;0.50;;
28180;SDS011;15464;50.988;10.318;2023-08-07T12:13:39;0.98;;;0.50;;
28180;SDS011;15464;50.988;10.318;2023-08-07T12:16:08;0.77;;;0.70;;
28180;SDS011;15464;50.988;10.318;2023-08-07T12:18:36;0.82;;;0.70;;
28180;SDS011;15464;50.988;10.318;2023-08-07T12:21:06;1.02;;;0.60;;
28180;SDS011;15464;50.988;10.318;2023-08-07T12:23:34;0.50;;;0.50;;
28180;SDS011;15464;50.988;10.318;2023-08-07T12:26:02;2.30;;;0.57;;
28180;SDS011;15464;50.988;10.318;2023-08-07T12:28:33;1.85;;;0.47;;
28180;SDS011;15464;50.988;10.318;2023-08-07T12:31:00;0.70;;;0.57;;
28180;SDS011;15464;50.988;10.318;2023-08-07T12:33:30;1.27;;;0.60;;
28180;SDS011;15464;50.988;10.318;2023-08-07T12:35:58;1.52;;;0.50;;
28180;SDS011;15464;50.988;10.318;2023-08-07T12:38:25;4.13;;;0.73;;
28180;SDS011;15464;50.988;10.318;2023-08-07T12:40:53;1.83;;;0.70;;
28180;SDS011;15464;50.988;10.318;2023-08-07T12:43:20;2.40;;;0.52;;
28180;SDS011;15464;50.988;10.318;2023-08-07T12:45:47;1.25;;;0.50;;
28180;SDS011;15464;50.988;10.318;2023-08-07T12:48:17;1.42;;;0.60;;
28180;SDS011;15464;50.988;10.318;2023-08-07T12:50:45;0.85;;;0.52;;
28180;SDS011;15464;50.988;10.318;2023-08-07T12:53:11;0.60;;;0.60;;
28180;SDS011;15464;50.988;10.318;2023-08-07T12:55:38;1.98;;;0.63;;
28180;SDS011;15464;50.988;10.318;2023-08-07T12:58:05;0.65;;;0.60;;
28180;SDS011;15464;50.988;10.318;2023-08-07T13:00:32;1.65;;;0.77;;
28180;SDS011;15464;50.988;10.318;2023-08-07T13:02:58;1.95;;;0.80;;
28180;SDS011;15464;50.988;10.318;2023-08-07T13:05:27;1.65;;;0.60;;
28180;SDS011;15464;50.988;10.318;2023-08-07T13:07:55;0.75;;;0.57;;
28180;SDS011;15464;50.988;10.318;2023-08-07T13:10:25;3.60;;;1.05;;
28180;SDS011;15464;50.988;10.318;2023-08-07T13:12:54;1.17;;;0.65;;
28180;SDS011;15464;50.988;10.318;2023-08-07T13:15:21;1.60;;;0.80;;
28180;SDS011;15464;50.988;10.318;2023-08-07T13:17:48;1.02;;;0.68;;
28180;SDS011;15464;50.988;10.318;2023-08-07T13:20:15;1.58;;;0.70;;
28180;SDS011;15464;50.988;10.318;2023-08-07T13:22:42;3.95;;;1.17;;
28180;SDS011;15464;50.988;10.318;2023-08-07T13:25:11;2.17;;;0.95;;
28180;SDS011;15464;50.988;10.318;2023-08-07T13:27:39;2.63;;;0.98;;
28180;SDS011;15464;50.988;10.318;2023-08-07T13:30:06;2.67;;;0.88;;
28180;SDS011;15464;50.988;10.318;2023-08-07T13:32:33;1.30;;;0.80;;
28180;SDS011;15464;50.988;10.318;2023-08-07T13:35:01;3.00;;;0.80;;
28180;SDS011;15464;50.988;10.318;2023-08-07T13:37:29;2.67;;;1.13;;
28180;SDS011;15464;50.988;10.318;2023-08-07T13:39:56;2.38;;;0.85;;
28180;SDS011;15464;50.988;10.318;2023-08-07T13:42:23;1.95;;;1.30;;
28180;SDS011;15464;50.988;10.318;2023-08-07T13:44:52;1.75;;;0.95;;
28180;SDS011;15464;50.988;10.318;2023-08-07T13:47:19;2.85;;;1.05;;
28180;SDS011;15464;50.988;10.318;2023-08-07T13:49:47;4.28;;;2.00;;
28180;SDS011;15464;50.988;10.318;2023-08-07T13:52:14;3.67;;;1.60;;
28180;SDS011;15464;50.988;10.318;2023-08-07T13:54:41;3.67;;;1.30;;
28180;SDS011;15464;50.988;10.318;2023-08-07T13:57:08;2.83;;;1.20;;
28180;SDS011;15464;50.988;10.318;2023-08-07T13:59:35;3.08;;;1.45;;
28180;SDS011;15464;50.988;10.318;2023-08-07T14:02:02;3.10;;;1.40;;
28180;SDS011;15464;50.988;10.318;2023-08-07T14:04:29;3.15;;;1.20;;
28180;SDS011;15464;50.988;10.318;2023-08-07T14:06:56;4.18;;;1.65;;
28180;SDS011;15464;50.988;10.318;2023-08-07T14:09:23;5.50;;;1.52;;
28180;SDS011;15464;50.988;10.318;2023-08-07T14:11:50;4.93;;;1.67;;
28180;SDS011;15464;50.988;10.318;2023-08-07T14:14:17;3.17;;;1.52;;
28180;SDS011;15464;50.988;10.318;2023-08-07T14:16:44;2.50;;;1.60;;
28180;SDS011;15464;50.988;10.318;2023-08-07T14:19:11;4.45;;;1.88;;
28180;SDS011;15464;50.988;10.318;2023-08-07T14:21:38;4.10;;;2.50;;
28180;SDS011;15464;50.988;10.318;2023-08-07T14:24:05;4.28;;;1.77;;
28180;SDS011;15464;50.988;10.318;2023-08-07T14:26:32;4.10;;;2.00;;
28180;SDS011;15464;50.988;10.318;2023-08-07T14:28:59;4.97;;;2.13;;
28180;SDS011;15464;50.988;10.318;2023-08-07T14:31:26;4.75;;;1.88;;
28180;SDS011;15464;50.988;10.318;2023-08-07T14:33:53;3.30;;;2.05;;
28180;SDS011;15464;50.988;10.318;2023-08-07T14:36:20;6.57;;;2.53;;
28180;SDS011;15464;50.988;10.318;2023-08-07T14:38:47;3.15;;;2.17;;
28180;SDS011;15464;50.988;10.318;2023-08-07T14:41:14;9.63;;;2.95;;
28180;SDS011;15464;50.988;10.318;2023-08-07T14:43:41;5.97;;;2.40;;
28180;SDS011;15464;50.988;10.318;2023-08-07T14:46:07;5.72;;;2.60;;
28180;SDS011;15464;50.988;10.318;2023-08-07T14:48:34;3.28;;;2.10;;
28180;SDS011;15464;50.988;10.318;2023-08-07T14:51:01;4.55;;;2.20;;
28180;SDS011;15464;50.988;10.318;2023-08-07T14:53:28;4.07;;;2.30;;
28180;SDS011;15464;50.988;10.318;2023-08-07T14:55:54;4.28;;;2.30;;